sensor_id;sensor_type;location;lat;lon;timestamp;temperature;humidity
21169;DHT22;10742;51.816;8.662;2023-07-29T00:00:10;23.70;93.10
21169;DHT22;10742;51.816;8.662;2023-07-29T00:03:15;23.60;93.20
21169;DHT22;10742;51.816;8.662;2023-07-29T00:06:18;23.60;93.20
21169;DHT22;10742;51.816;8.662;2023-07-29T00:09:21;23.50;93.30
21169;DHT22;10742;51.816;8.662;2023-07-29T00:12:23;23.50;93.40
21169;DHT22;10742;51.816;8.662;2023-07-29T00:15:26;23.40;93.40
21169;DHT22;10742;51.816;8.662;2023-07-29T00:18:29;23.40;93.60
21169;DHT22;10742;51.816;8.662;2023-07-29T00:21:32;23.40;93.70
21169;DHT22;10742;51.816;8.662;2023-07-29T00:24:34;23.40;93.80
21169;DHT22;10742;51.816;8.662;2023-07-29T00:27:37;23.30;93.80
21169;DHT22;10742;51.816;8.662;2023-07-29T00:30:40;23.30;93.90
21169;DHT22;10742;51.816;8.662;2023-07-29T00:33:42;23.30;93.90
21169;DHT22;10742;51.816;8.662;2023-07-29T00:36:45;23.30;93.90
21169;DHT22;10742;51.816;8.662;2023-07-29T00:39:48;23.20;93.90
21169;DHT22;10742;51.816;8.662;2023-07-29T00:42:50;23.20;93.90
21169;DHT22;10742;51.816;8.662;2023-07-29T00:45:53;23.20;94.00
21169;DHT22;10742;51.816;8.662;2023-07-29T00:48:56;23.20;94.10
21169;DHT22;10742;51.816;8.662;2023-07-29T00:51:59;23.20;94.10
21169;DHT22;10742;51.816;8.662;2023-07-29T00:55:02;23.10;94.20
21169;DHT22;10742;51.816;8.662;2023-07-29T00:58:05;23.20;94.30
21169;DHT22;10742;51.816;8.662;2023-07-29T01:01:08;23.20;94.30
21169;DHT22;10742;51.816;8.662;2023-07-29T01:04:10;23.20;94.40
21169;DHT22;10742;51.816;8.662;2023-07-29T01:10:41;23.20;94.50
21169;DHT22;10742;51.816;8.662;2023-07-29T01:17:15;23.20;94.70
21169;DHT22;10742;51.816;8.662;2023-07-29T01:20:24;23.20;94.50
21169;DHT22;10742;51.816;8.662;2023-07-29T01:23:31;23.20;94.50
21169;DHT22;10742;51.816;8.662;2023-07-29T01:26:34;23.20;94.60
21169;DHT22;10742;51.816;8.662;2023-07-29T01:29:38;23.20;94.50
21169;DHT22;10742;51.816;8.662;2023-07-29T01:32:55;23.30;94.60
21169;DHT22;10742;51.816;8.662;2023-07-29T01:36:06;23.20;94.80
21169;DHT22;10742;51.816;8.662;2023-07-29T01:39:11;23.20;94.60
21169;DHT22;10742;51.816;8.662;2023-07-29T01:42:15;23.20;94.50
21169;DHT22;10742;51.816;8.662;2023-07-29T01:45:18;23.20;94.50
21169;DHT22;10742;51.816;8.662;2023-07-29T01:48:21;23.20;94.60
21169;DHT22;10742;51.816;8.662;2023-07-29T01:51:25;23.20;94.80
21169;DHT22;10742;51.816;8.662;2023-07-29T01:54:27;23.20;94.80
21169;DHT22;10742;51.816;8.662;2023-07-29T01:57:30;23.20;95.10
21169;DHT22;10742;51.816;8.662;2023-07-29T02:00:33;23.20;95.20
21169;DHT22;10742;51.816;8.662;2023-07-29T02:03:35;23.20;95.40
21169;DHT22;10742;51.816;8.662;2023-07-29T02:06:38;23.20;95.40
21169;DHT22;10742;51.816;8.662;2023-07-29T02:09:41;23.20;95.60
21169;DHT22;10742;51.816;8.662;2023-07-29T02:12:43;23.20;95.70
21169;DHT22;10742;51.816;8.662;2023-07-29T02:15:46;23.20;95.80
21169;DHT22;10742;51.816;8.662;2023-07-29T02:18:48;23.20;95.80
21169;DHT22;10742;51.816;8.662;2023-07-29T02:21:52;23.20;95.90
21169;DHT22;10742;51.816;8.662;2023-07-29T02:24:55;23.20;96.00
21169;DHT22;10742;51.816;8.662;2023-07-29T02:27:57;23.20;96.40
21169;DHT22;10742;51.816;8.662;2023-07-29T02:31:20;23.20;96.10
21169;DHT22;10742;51.816;8.662;2023-07-29T02:34:23;23.20;96.60
21169;DHT22;10742;51.816;8.662;2023-07-29T02:37:26;23.20;96.20
21169;DHT22;10742;51.816;8.662;2023-07-29T02:40:28;23.10;96.10
21169;DHT22;10742;51.816;8.662;2023-07-29T02:43:31;23.20;96.10
21169;DHT22;10742;51.816;8.662;2023-07-29T02:46:34;23.10;96.10
21169;DHT22;10742;51.816;8.662;2023-07-29T02:49:36;23.10;96.10
21169;DHT22;10742;51.816;8.662;2023-07-29T02:52:39;23.10;96.30
21169;DHT22;10742;51.816;8.662;2023-07-29T02:55:42;23.00;96.30
21169;DHT22;10742;51.816;8.662;2023-07-29T02:58:44;23.00;96.70
21169;DHT22;10742;51.816;8.662;2023-07-29T03:01:47;23.00;96.40
21169;DHT22;10742;51.816;8.662;2023-07-29T03:04:49;23.00;96.40
21169;DHT22;10742;51.816;8.662;2023-07-29T03:07:52;23.00;96.90
21169;DHT22;10742;51.816;8.662;2023-07-29T03:10:56;23.00;96.70
21169;DHT22;10742;51.816;8.662;2023-07-29T03:13:58;22.90;96.80
21169;DHT22;10742;51.816;8.662;2023-07-29T03:17:04;23.00;96.80
21169;DHT22;10742;51.816;8.662;2023-07-29T03:20:08;23.00;96.90
21169;DHT22;10742;51.816;8.662;2023-07-29T03:23:11;23.00;96.90
21169;DHT22;10742;51.816;8.662;2023-07-29T03:26:13;23.00;96.90
21169;DHT22;10742;51.816;8.662;2023-07-29T03:29:16;22.90;96.90
21169;DHT22;10742;51.816;8.662;2023-07-29T03:32:19;22.90;96.90
21169;DHT22;10742;51.816;8.662;2023-07-29T03:35:21;22.90;97.00
21169;DHT22;10742;51.816;8.662;2023-07-29T03:38:24;22.90;97.10
21169;DHT22;10742;51.816;8.662;2023-07-29T03:41:27;22.90;97.10
21169;DHT22;10742;51.816;8.662;2023-07-29T03:44:29;22.90;97.20
21169;DHT22;10742;51.816;8.662;2023-07-29T03:47:33;22.90;97.20
21169;DHT22;10742;51.816;8.662;2023-07-29T03:50:36;22.90;97.10
21169;DHT22;10742;51.816;8.662;2023-07-29T03:53:39;22.90;97.20
21169;DHT22;10742;51.816;8.662;2023-07-29T03:56:41;22.90;97.20
21169;DHT22;10742;51.816;8.662;2023-07-29T03:59:44;23.00;97.20
21169;DHT22;10742;51.816;8.662;2023-07-29T04:02:46;22.90;97.20
21169;DHT22;10742;51.816;8.662;2023-07-29T04:05:49;23.00;97.20
21169;DHT22;10742;51.816;8.662;2023-07-29T04:08:52;22.90;97.20
21169;DHT22;10742;51.816;8.662;2023-07-29T04:11:55;22.90;97.20
21169;DHT22;10742;51.816;8.662;2023-07-29T04:14:57;23.00;97.30
21169;DHT22;10742;51.816;8.662;2023-07-29T04:18:00;22.90;97.30
21169;DHT22;10742;51.816;8.662;2023-07-29T04:21:03;22.90;97.30
21169;DHT22;10742;51.816;8.662;2023-07-29T04:24:05;22.90;97.40
21169;DHT22;10742;51.816;8.662;2023-07-29T04:27:08;22.90;97.50
21169;DHT22;10742;51.816;8.662;2023-07-29T04:30:11;22.90;97.50
21169;DHT22;10742;51.816;8.662;2023-07-29T04:33:13;22.90;97.60
21169;DHT22;10742;51.816;8.662;2023-07-29T04:36:16;22.90;97.60
21169;DHT22;10742;51.816;8.662;2023-07-29T04:39:20;22.90;97.70
21169;DHT22;10742;51.816;8.662;2023-07-29T04:42:22;23.00;97.80
21169;DHT22;10742;51.816;8.662;2023-07-29T04:45:28;23.00;97.80
21169;DHT22;10742;51.816;8.662;2023-07-29T04:48:31;23.00;97.90
21169;DHT22;10742;51.816;8.662;2023-07-29T04:51:34;23.00;97.80
21169;DHT22;10742;51.816;8.662;2023-07-29T04:54:37;23.00;97.90
21169;DHT22;10742;51.816;8.662;2023-07-29T04:57:39;23.00;97.90
21169;DHT22;10742;51.816;8.662;2023-07-29T05:00:42;23.00;98.00
21169;DHT22;10742;51.816;8.662;2023-07-29T05:03:44;23.10;98.00
21169;DHT22;10742;51.816;8.662;2023-07-29T05:06:48;23.10;98.10
21169;DHT22;10742;51.816;8.662;2023-07-29T05:09:50;23.10;98.10
21169;DHT22;10742;51.816;8.662;2023-07-29T05:12:52;23.10;98.20
21169;DHT22;10742;51.816;8.662;2023-07-29T05:15:55;23.10;98.20
21169;DHT22;10742;51.816;8.662;2023-07-29T05:18:58;23.20;98.30
21169;DHT22;10742;51.816;8.662;2023-07-29T05:22:01;23.20;98.30
21169;DHT22;10742;51.816;8.662;2023-07-29T05:25:03;23.20;98.30
21169;DHT22;10742;51.816;8.662;2023-07-29T05:28:06;23.20;98.40
21169;DHT22;10742;51.816;8.662;2023-07-29T05:31:08;23.20;98.40
21169;DHT22;10742;51.816;8.662;2023-07-29T05:34:11;23.30;98.50
21169;DHT22;10742;51.816;8.662;2023-07-29T05:37:14;23.30;98.50
21169;DHT22;10742;51.816;8.662;2023-07-29T05:40:17;23.30;98.50
21169;DHT22;10742;51.816;8.662;2023-07-29T05:43:19;23.30;98.50
21169;DHT22;10742;51.816;8.662;2023-07-29T05:46:22;23.40;98.60
21169;DHT22;10742;51.816;8.662;2023-07-29T05:49:24;23.40;98.60
21169;DHT22;10742;51.816;8.662;2023-07-29T05:52:27;23.40;98.70
21169;DHT22;10742;51.816;8.662;2023-07-29T05:55:30;23.50;98.70
21169;DHT22;10742;51.816;8.662;2023-07-29T05:58:32;23.50;98.70
21169;DHT22;10742;51.816;8.662;2023-07-29T06:01:35;23.50;98.70
21169;DHT22;10742;51.816;8.662;2023-07-29T06:04:37;23.50;98.70
21169;DHT22;10742;51.816;8.662;2023-07-29T06:07:59;23.60;98.70
21169;DHT22;10742;51.816;8.662;2023-07-29T06:11:20;23.60;98.60
21169;DHT22;10742;51.816;8.662;2023-07-29T06:14:42;23.60;98.70
21169;DHT22;10742;51.816;8.662;2023-07-29T06:18:03;23.60;98.70
21169;DHT22;10742;51.816;8.662;2023-07-29T06:21:06;23.70;98.70
21169;DHT22;10742;51.816;8.662;2023-07-29T06:24:10;23.70;98.80
21169;DHT22;10742;51.816;8.662;2023-07-29T06:27:13;23.70;98.80
21169;DHT22;10742;51.816;8.662;2023-07-29T06:30:15;23.70;98.90
21169;DHT22;10742;51.816;8.662;2023-07-29T06:33:18;23.70;99.00
21169;DHT22;10742;51.816;8.662;2023-07-29T06:36:21;23.80;99.00
21169;DHT22;10742;51.816;8.662;2023-07-29T06:39:24;23.80;99.00
21169;DHT22;10742;51.816;8.662;2023-07-29T06:42:26;23.80;99.00
21169;DHT22;10742;51.816;8.662;2023-07-29T06:45:29;23.90;99.00
21169;DHT22;10742;51.816;8.662;2023-07-29T06:48:31;23.90;99.00
21169;DHT22;10742;51.816;8.662;2023-07-29T06:51:34;24.00;99.00
21169;DHT22;10742;51.816;8.662;2023-07-29T06:54:37;24.00;99.00
21169;DHT22;10742;51.816;8.662;2023-07-29T06:57:40;24.00;99.00
21169;DHT22;10742;51.816;8.662;2023-07-29T07:00:43;24.10;99.00
21169;DHT22;10742;51.816;8.662;2023-07-29T07:03:45;24.10;99.00
21169;DHT22;10742;51.816;8.662;2023-07-29T07:06:48;24.10;99.00
21169;DHT22;10742;51.816;8.662;2023-07-29T07:09:50;24.20;99.00
21169;DHT22;10742;51.816;8.662;2023-07-29T07:12:53;24.20;99.00
21169;DHT22;10742;51.816;8.662;2023-07-29T07:15:56;24.20;98.90
21169;DHT22;10742;51.816;8.662;2023-07-29T07:18:59;24.30;98.90
21169;DHT22;10742;51.816;8.662;2023-07-29T07:22:01;24.30;98.80
21169;DHT22;10742;51.816;8.662;2023-07-29T07:25:04;24.30;98.70
21169;DHT22;10742;51.816;8.662;2023-07-29T07:28:09;24.30;98.70
21169;DHT22;10742;51.816;8.662;2023-07-29T07:31:11;24.30;98.60
21169;DHT22;10742;51.816;8.662;2023-07-29T07:34:32;24.30;98.50
21169;DHT22;10742;51.816;8.662;2023-07-29T07:37:54;24.30;98.60
21169;DHT22;10742;51.816;8.662;2023-07-29T07:41:15;24.40;98.60
21169;DHT22;10742;51.816;8.662;2023-07-29T07:44:37;24.40;98.60
21169;DHT22;10742;51.816;8.662;2023-07-29T07:47:58;24.40;98.60
21169;DHT22;10742;51.816;8.662;2023-07-29T07:51:20;24.40;98.70
21169;DHT22;10742;51.816;8.662;2023-07-29T07:54:41;24.50;98.80
21169;DHT22;10742;51.816;8.662;2023-07-29T07:58:03;24.50;98.70
21169;DHT22;10742;51.816;8.662;2023-07-29T08:01:25;24.60;98.50
21169;DHT22;10742;51.816;8.662;2023-07-29T08:04:47;24.60;98.60
21169;DHT22;10742;51.816;8.662;2023-07-29T08:08:09;24.70;98.80
21169;DHT22;10742;51.816;8.662;2023-07-29T08:11:30;24.80;98.70
21169;DHT22;10742;51.816;8.662;2023-07-29T08:14:52;24.90;98.50
21169;DHT22;10742;51.816;8.662;2023-07-29T08:17:54;25.00;98.40
21169;DHT22;10742;51.816;8.662;2023-07-29T08:20:59;25.10;98.10
21169;DHT22;10742;51.816;8.662;2023-07-29T08:24:05;25.20;97.80
21169;DHT22;10742;51.816;8.662;2023-07-29T08:27:09;25.30;97.50
21169;DHT22;10742;51.816;8.662;2023-07-29T08:30:12;25.30;97.20
21169;DHT22;10742;51.816;8.662;2023-07-29T08:33:15;25.40;97.10
21169;DHT22;10742;51.816;8.662;2023-07-29T08:36:17;25.50;97.00
21169;DHT22;10742;51.816;8.662;2023-07-29T08:39:20;25.60;97.10
21169;DHT22;10742;51.816;8.662;2023-07-29T08:42:23;25.70;97.10
21169;DHT22;10742;51.816;8.662;2023-07-29T08:45:34;25.90;97.10
21169;DHT22;10742;51.816;8.662;2023-07-29T08:48:43;26.00;95.90
21169;DHT22;10742;51.816;8.662;2023-07-29T08:51:49;26.20;95.00
21169;DHT22;10742;51.816;8.662;2023-07-29T08:54:52;26.20;94.50
21169;DHT22;10742;51.816;8.662;2023-07-29T08:57:55;26.30;94.60
21169;DHT22;10742;51.816;8.662;2023-07-29T09:00:58;26.40;94.50
21169;DHT22;10742;51.816;8.662;2023-07-29T09:04:00;26.50;94.40
21169;DHT22;10742;51.816;8.662;2023-07-29T09:07:05;26.60;94.10
21169;DHT22;10742;51.816;8.662;2023-07-29T09:10:09;26.80;93.60
21169;DHT22;10742;51.816;8.662;2023-07-29T09:13:13;27.00;93.60
21169;DHT22;10742;51.816;8.662;2023-07-29T09:16:15;27.20;93.30
21169;DHT22;10742;51.816;8.662;2023-07-29T09:19:18;27.30;92.90
21169;DHT22;10742;51.816;8.662;2023-07-29T09:22:21;27.50;92.40
21169;DHT22;10742;51.816;8.662;2023-07-29T09:25:30;27.60;92.40
21169;DHT22;10742;51.816;8.662;2023-07-29T09:28:37;27.80;92.10
21169;DHT22;10742;51.816;8.662;2023-07-29T09:31:40;28.00;91.50
21169;DHT22;10742;51.816;8.662;2023-07-29T09:34:43;28.20;91.60
21169;DHT22;10742;51.816;8.662;2023-07-29T09:37:46;28.40;90.70
21169;DHT22;10742;51.816;8.662;2023-07-29T09:40:50;28.50;90.00
21169;DHT22;10742;51.816;8.662;2023-07-29T09:43:58;28.70;88.60
21169;DHT22;10742;51.816;8.662;2023-07-29T09:47:00;28.80;88.00
21169;DHT22;10742;51.816;8.662;2023-07-29T09:50:03;28.90;87.20
21169;DHT22;10742;51.816;8.662;2023-07-29T09:53:07;29.00;86.40
21169;DHT22;10742;51.816;8.662;2023-07-29T09:56:10;29.10;85.40
21169;DHT22;10742;51.816;8.662;2023-07-29T09:59:13;29.10;85.10
21169;DHT22;10742;51.816;8.662;2023-07-29T10:02:16;29.20;84.80
21169;DHT22;10742;51.816;8.662;2023-07-29T10:05:21;29.30;84.70
21169;DHT22;10742;51.816;8.662;2023-07-29T10:08:29;29.50;82.20
21169;DHT22;10742;51.816;8.662;2023-07-29T10:11:32;29.50;83.10
21169;DHT22;10742;51.816;8.662;2023-07-29T10:14:38;29.70;82.20
21169;DHT22;10742;51.816;8.662;2023-07-29T10:17:40;29.80;81.10
21169;DHT22;10742;51.816;8.662;2023-07-29T10:20:43;29.90;80.60
21169;DHT22;10742;51.816;8.662;2023-07-29T10:23:47;30.00;79.60
21169;DHT22;10742;51.816;8.662;2023-07-29T10:26:52;30.10;79.00
21169;DHT22;10742;51.816;8.662;2023-07-29T10:29:55;30.10;78.50
21169;DHT22;10742;51.816;8.662;2023-07-29T10:33:02;30.10;78.10
21169;DHT22;10742;51.816;8.662;2023-07-29T10:36:05;30.10;77.80
21169;DHT22;10742;51.816;8.662;2023-07-29T10:39:08;30.20;77.30
21169;DHT22;10742;51.816;8.662;2023-07-29T10:42:12;30.20;76.60
21169;DHT22;10742;51.816;8.662;2023-07-29T10:45:21;30.20;76.50
21169;DHT22;10742;51.816;8.662;2023-07-29T10:51:37;30.20;73.90
21169;DHT22;10742;51.816;8.662;2023-07-29T10:54:46;30.20;76.60
21169;DHT22;10742;51.816;8.662;2023-07-29T10:57:49;30.30;74.40
21169;DHT22;10742;51.816;8.662;2023-07-29T11:00:52;30.30;74.80
21169;DHT22;10742;51.816;8.662;2023-07-29T11:07:24;30.20;73.30
21169;DHT22;10742;51.816;8.662;2023-07-29T11:10:42;30.30;74.40
21169;DHT22;10742;51.816;8.662;2023-07-29T11:13:46;30.20;72.70
21169;DHT22;10742;51.816;8.662;2023-07-29T11:16:49;30.30;74.00
21169;DHT22;10742;51.816;8.662;2023-07-29T11:19:53;30.30;74.00
21169;DHT22;10742;51.816;8.662;2023-07-29T11:22:58;30.30;74.50
21169;DHT22;10742;51.816;8.662;2023-07-29T11:26:03;30.40;72.80
21169;DHT22;10742;51.816;8.662;2023-07-29T11:29:06;30.40;72.90
21169;DHT22;10742;51.816;8.662;2023-07-29T11:32:09;30.40;73.00
21169;DHT22;10742;51.816;8.662;2023-07-29T11:35:14;30.40;72.30
21169;DHT22;10742;51.816;8.662;2023-07-29T11:38:18;30.40;72.60
21169;DHT22;10742;51.816;8.662;2023-07-29T11:41:21;30.40;73.00
21169;DHT22;10742;51.816;8.662;2023-07-29T11:44:27;30.50;72.70
21169;DHT22;10742;51.816;8.662;2023-07-29T11:47:31;30.60;71.50
21169;DHT22;10742;51.816;8.662;2023-07-29T11:50:35;30.60;71.70
21169;DHT22;10742;51.816;8.662;2023-07-29T11:53:37;30.80;70.90
21169;DHT22;10742;51.816;8.662;2023-07-29T11:56:40;30.80;70.40
21169;DHT22;10742;51.816;8.662;2023-07-29T11:59:43;30.80;70.00
21169;DHT22;10742;51.816;8.662;2023-07-29T12:02:47;30.80;69.80
21169;DHT22;10742;51.816;8.662;2023-07-29T12:05:51;30.90;70.00
21169;DHT22;10742;51.816;8.662;2023-07-29T12:08:54;31.00;70.10
21169;DHT22;10742;51.816;8.662;2023-07-29T12:11:57;31.00;69.10
21169;DHT22;10742;51.816;8.662;2023-07-29T12:14:59;31.00;68.30
21169;DHT22;10742;51.816;8.662;2023-07-29T12:18:03;31.00;67.40
21169;DHT22;10742;51.816;8.662;2023-07-29T12:21:06;31.00;67.20
21169;DHT22;10742;51.816;8.662;2023-07-29T12:24:09;31.00;67.30
21169;DHT22;10742;51.816;8.662;2023-07-29T12:27:13;31.00;67.30
21169;DHT22;10742;51.816;8.662;2023-07-29T12:30:19;31.00;66.60
21169;DHT22;10742;51.816;8.662;2023-07-29T12:33:37;31.00;66.70
21169;DHT22;10742;51.816;8.662;2023-07-29T12:36:49;31.00;66.10
21169;DHT22;10742;51.816;8.662;2023-07-29T12:39:51;31.10;66.80
21169;DHT22;10742;51.816;8.662;2023-07-29T12:42:56;31.10;67.50
21169;DHT22;10742;51.816;8.662;2023-07-29T12:45:59;31.10;67.40
21169;DHT22;10742;51.816;8.662;2023-07-29T12:49:02;31.20;67.00
21169;DHT22;10742;51.816;8.662;2023-07-29T12:52:04;31.20;66.80
21169;DHT22;10742;51.816;8.662;2023-07-29T12:55:07;31.20;66.20
21169;DHT22;10742;51.816;8.662;2023-07-29T12:58:11;31.30;66.00
21169;DHT22;10742;51.816;8.662;2023-07-29T13:01:14;31.30;66.10
21169;DHT22;10742;51.816;8.662;2023-07-29T13:04:20;31.30;65.50
21169;DHT22;10742;51.816;8.662;2023-07-29T13:07:23;31.30;65.20
21169;DHT22;10742;51.816;8.662;2023-07-29T13:10:25;31.20;66.10
21169;DHT22;10742;51.816;8.662;2023-07-29T13:13:28;31.20;65.70
21169;DHT22;10742;51.816;8.662;2023-07-29T13:16:31;31.20;65.10
21169;DHT22;10742;51.816;8.662;2023-07-29T13:19:33;31.10;65.20
21169;DHT22;10742;51.816;8.662;2023-07-29T13:22:36;31.20;65.40
21169;DHT22;10742;51.816;8.662;2023-07-29T13:25:39;31.10;64.80
21169;DHT22;10742;51.816;8.662;2023-07-29T13:28:41;31.20;64.90
21169;DHT22;10742;51.816;8.662;2023-07-29T13:31:44;31.10;64.40
21169;DHT22;10742;51.816;8.662;2023-07-29T13:34:46;31.10;64.50
21169;DHT22;10742;51.816;8.662;2023-07-29T13:37:49;31.00;64.10
21169;DHT22;10742;51.816;8.662;2023-07-29T13:40:51;30.90;64.40
21169;DHT22;10742;51.816;8.662;2023-07-29T13:43:54;30.80;64.40
21169;DHT22;10742;51.816;8.662;2023-07-29T13:46:56;30.80;64.70
21169;DHT22;10742;51.816;8.662;2023-07-29T13:49:59;30.70;64.70
21169;DHT22;10742;51.816;8.662;2023-07-29T13:53:02;30.70;65.40
21169;DHT22;10742;51.816;8.662;2023-07-29T13:56:04;30.60;65.30
21169;DHT22;10742;51.816;8.662;2023-07-29T13:59:07;30.50;65.30
21169;DHT22;10742;51.816;8.662;2023-07-29T14:02:10;30.40;65.40
21169;DHT22;10742;51.816;8.662;2023-07-29T14:05:13;30.40;66.90
21169;DHT22;10742;51.816;8.662;2023-07-29T14:08:16;30.30;68.50
21169;DHT22;10742;51.816;8.662;2023-07-29T14:11:18;30.10;68.80
21169;DHT22;10742;51.816;8.662;2023-07-29T14:14:21;29.90;70.20
21169;DHT22;10742;51.816;8.662;2023-07-29T14:17:23;29.60;70.90
21169;DHT22;10742;51.816;8.662;2023-07-29T14:20:26;29.30;71.80
21169;DHT22;10742;51.816;8.662;2023-07-29T14:23:29;29.10;72.10
21169;DHT22;10742;51.816;8.662;2023-07-29T14:26:32;28.90;72.40
21169;DHT22;10742;51.816;8.662;2023-07-29T14:29:35;28.60;73.20
21169;DHT22;10742;51.816;8.662;2023-07-29T14:32:37;28.40;74.10
21169;DHT22;10742;51.816;8.662;2023-07-29T14:35:40;28.30;75.90
21169;DHT22;10742;51.816;8.662;2023-07-29T14:38:42;28.20;76.70
21169;DHT22;10742;51.816;8.662;2023-07-29T14:41:45;28.20;78.20
21169;DHT22;10742;51.816;8.662;2023-07-29T14:44:47;28.10;79.20
21169;DHT22;10742;51.816;8.662;2023-07-29T14:47:50;28.10;80.30
21169;DHT22;10742;51.816;8.662;2023-07-29T14:50:55;28.10;81.10
21169;DHT22;10742;51.816;8.662;2023-07-29T14:53:57;28.20;81.20
21169;DHT22;10742;51.816;8.662;2023-07-29T14:57:00;28.20;81.40
21169;DHT22;10742;51.816;8.662;2023-07-29T15:00:03;28.20;82.20
21169;DHT22;10742;51.816;8.662;2023-07-29T15:03:06;28.20;82.50
21169;DHT22;10742;51.816;8.662;2023-07-29T15:06:09;28.30;82.80
21169;DHT22;10742;51.816;8.662;2023-07-29T15:09:12;28.30;83.10
21169;DHT22;10742;51.816;8.662;2023-07-29T15:12:14;28.30;83.50
21169;DHT22;10742;51.816;8.662;2023-07-29T15:15:17;28.30;83.70
21169;DHT22;10742;51.816;8.662;2023-07-29T15:18:19;28.30;83.90
21169;DHT22;10742;51.816;8.662;2023-07-29T15:21:23;28.40;83.70
21169;DHT22;10742;51.816;8.662;2023-07-29T15:24:25;28.40;83.10
21169;DHT22;10742;51.816;8.662;2023-07-29T15:27:30;28.40;82.90
21169;DHT22;10742;51.816;8.662;2023-07-29T15:30:35;28.40;82.90
21169;DHT22;10742;51.816;8.662;2023-07-29T15:33:38;28.40;83.20
21169;DHT22;10742;51.816;8.662;2023-07-29T15:36:41;28.30;82.70
21169;DHT22;10742;51.816;8.662;2023-07-29T15:39:43;28.20;82.40
21169;DHT22;10742;51.816;8.662;2023-07-29T15:42:46;28.20;81.80
21169;DHT22;10742;51.816;8.662;2023-07-29T15:45:49;28.10;81.30
21169;DHT22;10742;51.816;8.662;2023-07-29T15:48:51;27.90;80.30
21169;DHT22;10742;51.816;8.662;2023-07-29T15:51:54;27.50;79.60
21169;DHT22;10742;51.816;8.662;2023-07-29T15:54:56;27.20;79.60
21169;DHT22;10742;51.816;8.662;2023-07-29T15:57:59;26.70;79.70
21169;DHT22;10742;51.816;8.662;2023-07-29T16:01:02;26.20;80.20
21169;DHT22;10742;51.816;8.662;2023-07-29T16:04:05;25.80;81.70
21169;DHT22;10742;51.816;8.662;2023-07-29T16:07:08;25.40;81.60
21169;DHT22;10742;51.816;8.662;2023-07-29T16:10:10;25.10;82.70
21169;DHT22;10742;51.816;8.662;2023-07-29T16:13:13;24.90;83.60
21169;DHT22;10742;51.816;8.662;2023-07-29T16:16:20;24.70;84.50
21169;DHT22;10742;51.816;8.662;2023-07-29T16:19:25;24.50;85.40
21169;DHT22;10742;51.816;8.662;2023-07-29T16:22:28;24.40;86.40
21169;DHT22;10742;51.816;8.662;2023-07-29T16:25:31;24.30;87.00
21169;DHT22;10742;51.816;8.662;2023-07-29T16:28:34;24.20;87.40
21169;DHT22;10742;51.816;8.662;2023-07-29T16:31:37;24.20;87.90
21169;DHT22;10742;51.816;8.662;2023-07-29T16:34:40;24.20;88.80
21169;DHT22;10742;51.816;8.662;2023-07-29T16:37:42;24.20;89.90
21169;DHT22;10742;51.816;8.662;2023-07-29T16:40:45;24.20;90.40
21169;DHT22;10742;51.816;8.662;2023-07-29T16:43:54;24.30;90.50
21169;DHT22;10742;51.816;8.662;2023-07-29T16:46:57;24.40;90.40
21169;DHT22;10742;51.816;8.662;2023-07-29T16:50:00;24.50;90.30
21169;DHT22;10742;51.816;8.662;2023-07-29T16:53:10;24.50;90.50
21169;DHT22;10742;51.816;8.662;2023-07-29T16:56:31;24.50;90.60
21169;DHT22;10742;51.816;8.662;2023-07-29T16:59:53;24.50;90.50
21169;DHT22;10742;51.816;8.662;2023-07-29T17:03:14;24.60;90.50
21169;DHT22;10742;51.816;8.662;2023-07-29T17:06:39;24.70;90.40
21169;DHT22;10742;51.816;8.662;2023-07-29T17:10:01;24.70;90.50
21169;DHT22;10742;51.816;8.662;2023-07-29T17:13:22;24.70;90.50
21169;DHT22;10742;51.816;8.662;2023-07-29T17:16:44;24.70;90.40
21169;DHT22;10742;51.816;8.662;2023-07-29T17:19:46;24.70;90.30
21169;DHT22;10742;51.816;8.662;2023-07-29T17:22:49;24.70;90.20
21169;DHT22;10742;51.816;8.662;2023-07-29T17:25:52;24.70;90.30
21169;DHT22;10742;51.816;8.662;2023-07-29T17:28:54;24.70;90.20
21169;DHT22;10742;51.816;8.662;2023-07-29T17:31:57;24.70;90.30
21169;DHT22;10742;51.816;8.662;2023-07-29T17:34:59;24.60;90.20
21169;DHT22;10742;51.816;8.662;2023-07-29T17:38:02;24.60;90.30
21169;DHT22;10742;51.816;8.662;2023-07-29T17:41:04;24.60;90.40
21169;DHT22;10742;51.816;8.662;2023-07-29T17:44:07;24.50;90.50
21169;DHT22;10742;51.816;8.662;2023-07-29T17:47:09;24.50;90.60
21169;DHT22;10742;51.816;8.662;2023-07-29T17:50:12;24.50;90.70
21169;DHT22;10742;51.816;8.662;2023-07-29T17:53:14;24.50;90.70
21169;DHT22;10742;51.816;8.662;2023-07-29T17:56:17;24.40;90.70
21169;DHT22;10742;51.816;8.662;2023-07-29T17:59:19;24.40;90.90
21169;DHT22;10742;51.816;8.662;2023-07-29T18:02:22;24.40;91.00
21169;DHT22;10742;51.816;8.662;2023-07-29T18:05:24;24.30;90.90
21169;DHT22;10742;51.816;8.662;2023-07-29T18:08:27;24.30;91.00
21169;DHT22;10742;51.816;8.662;2023-07-29T18:11:30;24.30;91.10
21169;DHT22;10742;51.816;8.662;2023-07-29T18:14:32;24.20;91.20
21169;DHT22;10742;51.816;8.662;2023-07-29T18:17:35;24.20;91.60
21169;DHT22;10742;51.816;8.662;2023-07-29T18:20:38;24.10;91.30
21169;DHT22;10742;51.816;8.662;2023-07-29T18:23:42;24.10;91.30
21169;DHT22;10742;51.816;8.662;2023-07-29T18:26:44;24.10;91.50
21169;DHT22;10742;51.816;8.662;2023-07-29T18:29:47;24.00;91.50
21169;DHT22;10742;51.816;8.662;2023-07-29T18:32:49;24.00;91.60
21169;DHT22;10742;51.816;8.662;2023-07-29T18:35:52;23.90;91.70
21169;DHT22;10742;51.816;8.662;2023-07-29T18:38:54;23.90;92.20
21169;DHT22;10742;51.816;8.662;2023-07-29T18:41:57;23.90;91.80
21169;DHT22;10742;51.816;8.662;2023-07-29T18:44:59;23.80;91.90
21169;DHT22;10742;51.816;8.662;2023-07-29T18:48:02;23.80;92.00
21169;DHT22;10742;51.816;8.662;2023-07-29T18:51:05;23.70;92.10
21169;DHT22;10742;51.816;8.662;2023-07-29T18:54:09;23.70;92.10
21169;DHT22;10742;51.816;8.662;2023-07-29T18:57:12;23.70;92.20
21169;DHT22;10742;51.816;8.662;2023-07-29T19:00:15;23.60;92.30
21169;DHT22;10742;51.816;8.662;2023-07-29T19:03:17;23.60;92.30
21169;DHT22;10742;51.816;8.662;2023-07-29T19:06:21;23.60;92.40
21169;DHT22;10742;51.816;8.662;2023-07-29T19:09:24;23.60;92.50
21169;DHT22;10742;51.816;8.662;2023-07-29T19:12:27;23.60;92.50
21169;DHT22;10742;51.816;8.662;2023-07-29T19:15:30;23.60;92.60
21169;DHT22;10742;51.816;8.662;2023-07-29T19:18:33;23.50;92.60
21169;DHT22;10742;51.816;8.662;2023-07-29T19:21:35;23.50;92.70
21169;DHT22;10742;51.816;8.662;2023-07-29T19:24:38;23.50;92.80
21169;DHT22;10742;51.816;8.662;2023-07-29T19:27:40;23.50;92.80
21169;DHT22;10742;51.816;8.662;2023-07-29T19:30:43;23.40;92.80
21169;DHT22;10742;51.816;8.662;2023-07-29T19:33:46;23.40;92.90
21169;DHT22;10742;51.816;8.662;2023-07-29T19:36:49;23.30;92.90